sensor_id;sensor_type;location;lat;lon;timestamp;P1;durP1;ratioP1;P2;durP2;ratioP2
67227;SDS011;54139;42.616;23.748;2023-06-10T00:01:45;9.93;;;9.23;;
67227;SDS011;54139;42.616;23.748;2023-06-10T00:04:15;8.82;;;8.23;;
67227;SDS011;54139;42.616;23.748;2023-06-10T00:06:44;8.88;;;8.07;;
67227;SDS011;54139;42.616;23.748;2023-06-10T00:09:09;7.80;;;7.20;;
67227;SDS011;54139;42.616;23.748;2023-06-10T00:11:35;8.82;;;8.02;;
67227;SDS011;54139;42.616;23.748;2023-06-10T00:14:01;8.52;;;7.93;;
67227;SDS011;54139;42.616;23.748;2023-06-10T00:16:27;7.15;;;6.47;;
67227;SDS011;54139;42.616;23.748;2023-06-10T00:18:53;7.72;;;7.13;;
67227;SDS011;54139;42.616;23.748;2023-06-10T00:21:20;8.10;;;7.40;;
67227;SDS011;54139;42.616;23.748;2023-06-10T00:23:46;9.80;;;8.82;;
67227;SDS011;54139;42.616;23.748;2023-06-10T00:26:12;9.93;;;8.95;;
67227;SDS011;54139;42.616;23.748;2023-06-10T00:28:37;9.40;;;7.93;;
67227;SDS011;54139;42.616;23.748;2023-06-10T00:31:03;7.38;;;6.88;;
67227;SDS011;54139;42.616;23.748;2023-06-10T00:33:29;9.38;;;7.40;;
67227;SDS011;54139;42.616;23.748;2023-06-10T00:35:54;7.28;;;6.60;;
67227;SDS011;54139;42.616;23.748;2023-06-10T00:38:20;8.75;;;8.05;;
67227;SDS011;54139;42.616;23.748;2023-06-10T00:40:45;8.57;;;7.78;;
67227;SDS011;54139;42.616;23.748;2023-06-10T00:43:11;7.72;;;7.13;;
67227;SDS011;54139;42.616;23.748;2023-06-10T00:45:36;8.05;;;7.35;;
67227;SDS011;54139;42.616;23.748;2023-06-10T00:48:02;8.93;;;8.13;;
67227;SDS011;54139;42.616;23.748;2023-06-10T00:50:28;9.25;;;8.18;;
67227;SDS011;54139;42.616;23.748;2023-06-10T00:52:56;8.70;;;8.10;;
67227;SDS011;54139;42.616;23.748;2023-06-10T00:55:21;9.95;;;8.10;;
67227;SDS011;54139;42.616;23.748;2023-06-10T00:57:48;8.90;;;8.20;;
67227;SDS011;54139;42.616;23.748;2023-06-10T01:00:14;8.25;;;7.50;;
67227;SDS011;54139;42.616;23.748;2023-06-10T01:02:41;8.52;;;7.35;;
67227;SDS011;54139;42.616;23.748;2023-06-10T01:05:07;9.00;;;7.35;;
67227;SDS011;54139;42.616;23.748;2023-06-10T01:07:36;8.27;;;7.55;;
67227;SDS011;54139;42.616;23.748;2023-06-10T01:10:06;10.15;;;9.07;;
67227;SDS011;54139;42.616;23.748;2023-06-10T01:13:03;9.05;;;8.45;;
67227;SDS011;54139;42.616;23.748;2023-06-10T01:15:28;8.68;;;8.02;;
67227;SDS011;54139;42.616;23.748;2023-06-10T01:17:59;8.05;;;7.35;;
67227;SDS011;54139;42.616;23.748;2023-06-10T01:20:27;8.57;;;7.38;;
67227;SDS011;54139;42.616;23.748;2023-06-10T01:22:53;8.60;;;7.85;;
67227;SDS011;54139;42.616;23.748;2023-06-10T01:25:23;9.20;;;8.00;;
67227;SDS011;54139;42.616;23.748;2023-06-10T01:28:14;8.73;;;7.97;;
67227;SDS011;54139;42.616;23.748;2023-06-10T01:33:27;10.52;;;9.20;;
67227;SDS011;54139;42.616;23.748;2023-06-10T01:35:56;9.88;;;8.63;;
67227;SDS011;54139;42.616;23.748;2023-06-10T01:38:23;8.15;;;7.35;;
67227;SDS011;54139;42.616;23.748;2023-06-10T01:40:50;8.32;;;7.53;;
67227;SDS011;54139;42.616;23.748;2023-06-10T01:43:18;8.02;;;7.28;;
67227;SDS011;54139;42.616;23.748;2023-06-10T01:45:45;9.35;;;8.65;;
67227;SDS011;54139;42.616;23.748;2023-06-10T01:48:10;8.95;;;8.25;;
67227;SDS011;54139;42.616;23.748;2023-06-10T01:50:36;12.25;;;9.13;;
67227;SDS011;54139;42.616;23.748;2023-06-10T01:53:01;8.73;;;8.10;;
67227;SDS011;54139;42.616;23.748;2023-06-10T01:55:27;8.65;;;8.05;;
67227;SDS011;54139;42.616;23.748;2023-06-10T01:57:52;8.45;;;6.97;;
67227;SDS011;54139;42.616;23.748;2023-06-10T02:00:18;7.70;;;7.20;;
67227;SDS011;54139;42.616;23.748;2023-06-10T02:02:43;9.15;;;8.35;;
67227;SDS011;54139;42.616;23.748;2023-06-10T02:05:09;8.48;;;7.68;;
67227;SDS011;54139;42.616;23.748;2023-06-10T02:07:34;9.40;;;7.93;;
67227;SDS011;54139;42.616;23.748;2023-06-10T02:10:00;8.45;;;7.85;;
67227;SDS011;54139;42.616;23.748;2023-06-10T02:12:25;7.88;;;7.28;;
67227;SDS011;54139;42.616;23.748;2023-06-10T02:14:51;10.68;;;7.47;;
67227;SDS011;54139;42.616;23.748;2023-06-10T02:17:16;9.77;;;8.95;;
67227;SDS011;54139;42.616;23.748;2023-06-10T02:19:41;11.05;;;7.55;;
67227;SDS011;54139;42.616;23.748;2023-06-10T02:22:08;10.10;;;9.30;;
67227;SDS011;54139;42.616;23.748;2023-06-10T02:24:35;8.30;;;7.70;;
67227;SDS011;54139;42.616;23.748;2023-06-10T02:27:02;9.13;;;8.32;;
67227;SDS011;54139;42.616;23.748;2023-06-10T02:29:32;8.77;;;7.90;;
67227;SDS011;54139;42.616;23.748;2023-06-10T02:31:58;9.30;;;8.57;;
67227;SDS011;54139;42.616;23.748;2023-06-10T02:34:24;10.50;;;9.05;;
67227;SDS011;54139;42.616;23.748;2023-06-10T02:36:49;9.73;;;8.85;;
67227;SDS011;54139;42.616;23.748;2023-06-10T02:39:16;9.85;;;9.15;;
67227;SDS011;54139;42.616;23.748;2023-06-10T02:41:41;11.00;;;9.88;;
67227;SDS011;54139;42.616;23.748;2023-06-10T02:44:07;11.20;;;10.18;;
67227;SDS011;54139;42.616;23.748;2023-06-10T02:46:32;10.82;;;9.40;;
67227;SDS011;54139;42.616;23.748;2023-06-10T02:48:58;9.05;;;8.35;;
67227;SDS011;54139;42.616;23.748;2023-06-10T02:51:23;9.80;;;8.90;;
67227;SDS011;54139;42.616;23.748;2023-06-10T03:10:05;8.70;;;8.10;;
67227;SDS011;54139;42.616;23.748;2023-06-10T03:12:31;8.55;;;7.88;;
67227;SDS011;54139;42.616;23.748;2023-06-10T03:14:57;8.60;;;7.63;;
67227;SDS011;54139;42.616;23.748;2023-06-10T03:17:22;8.68;;;7.90;;
67227;SDS011;54139;42.616;23.748;2023-06-10T03:19:48;7.53;;;7.03;;
67227;SDS011;54139;42.616;23.748;2023-06-10T03:22:14;8.57;;;7.82;;
67227;SDS011;54139;42.616;23.748;2023-06-10T03:24:40;8.43;;;7.72;;
67227;SDS011;54139;42.616;23.748;2023-06-10T03:27:09;8.77;;;8.13;;
67227;SDS011;54139;42.616;23.748;2023-06-10T03:29:36;9.48;;;8.88;;
67227;SDS011;54139;42.616;23.748;2023-06-10T03:32:02;9.32;;;8.52;;
67227;SDS011;54139;42.616;23.748;2023-06-10T03:34:28;9.48;;;8.60;;
67227;SDS011;54139;42.616;23.748;2023-06-10T03:36:55;12.82;;;11.82;;
67227;SDS011;54139;42.616;23.748;2023-06-10T03:39:20;13.18;;;12.18;;
67227;SDS011;54139;42.616;23.748;2023-06-10T03:41:46;10.38;;;9.57;;
67227;SDS011;54139;42.616;23.748;2023-06-10T03:44:11;9.82;;;9.00;;
67227;SDS011;54139;42.616;23.748;2023-06-10T03:46:37;8.95;;;8.25;;
67227;SDS011;54139;42.616;23.748;2023-06-10T03:49:03;8.93;;;8.30;;
67227;SDS011;54139;42.616;23.748;2023-06-10T03:51:29;9.80;;;8.85;;
67227;SDS011;54139;42.616;23.748;2023-06-10T03:53:54;10.88;;;9.88;;
67227;SDS011;54139;42.616;23.748;2023-06-10T03:56:20;10.85;;;10.05;;
67227;SDS011;54139;42.616;23.748;2023-06-10T03:58:45;11.57;;;10.30;;
67227;SDS011;54139;42.616;23.748;2023-06-10T04:01:11;10.40;;;9.65;;
67227;SDS011;54139;42.616;23.748;2023-06-10T04:03:38;10.57;;;9.77;;
67227;SDS011;54139;42.616;23.748;2023-06-10T04:06:04;10.40;;;9.65;;
67227;SDS011;54139;42.616;23.748;2023-06-10T04:08:30;12.55;;;11.55;;
67227;SDS011;54139;42.616;23.748;2023-06-10T04:10:58;10.57;;;9.68;;
67227;SDS011;54139;42.616;23.748;2023-06-10T04:13:23;11.55;;;10.02;;
67227;SDS011;54139;42.616;23.748;2023-06-10T04:15:49;11.00;;;9.93;;
67227;SDS011;54139;42.616;23.748;2023-06-10T04:18:15;10.93;;;10.10;;
67227;SDS011;54139;42.616;23.748;2023-06-10T04:20:41;12.32;;;11.00;;
67227;SDS011;54139;42.616;23.748;2023-06-10T04:23:06;11.75;;;10.85;;
67227;SDS011;54139;42.616;23.748;2023-06-10T04:25:33;11.80;;;11.00;;
67227;SDS011;54139;42.616;23.748;2023-06-10T04:27:59;11.38;;;10.48;;
67227;SDS011;54139;42.616;23.748;2023-06-10T04:30:24;12.70;;;11.40;;
67227;SDS011;54139;42.616;23.748;2023-06-10T04:32:50;11.30;;;10.50;;
67227;SDS011;54139;42.616;23.748;2023-06-10T04:35:17;12.60;;;11.70;;
67227;SDS011;54139;42.616;23.748;2023-06-10T04:37:43;12.27;;;11.38;;
67227;SDS011;54139;42.616;23.748;2023-06-10T04:40:09;12.05;;;10.95;;
67227;SDS011;54139;42.616;23.748;2023-06-10T04:42:35;12.18;;;11.00;;
67227;SDS011;54139;42.616;23.748;2023-06-10T04:45:01;12.40;;;11.50;;
67227;SDS011;54139;42.616;23.748;2023-06-10T04:47:27;11.45;;;10.32;;
67227;SDS011;54139;42.616;23.748;2023-06-10T04:49:53;11.25;;;10.15;;
67227;SDS011;54139;42.616;23.748;2023-06-10T04:52:18;11.77;;;10.68;;
67227;SDS011;54139;42.616;23.748;2023-06-10T04:54:44;10.45;;;9.65;;
67227;SDS011;54139;42.616;23.748;2023-06-10T04:57:10;10.43;;;9.52;;
67227;SDS011;54139;42.616;23.748;2023-06-10T04:59:36;11.15;;;10.05;;
67227;SDS011;54139;42.616;23.748;2023-06-10T05:02:05;11.55;;;10.65;;
67227;SDS011;54139;42.616;23.748;2023-06-10T05:04:31;12.18;;;10.85;;
67227;SDS011;54139;42.616;23.748;2023-06-10T05:06:56;12.80;;;11.90;;
67227;SDS011;54139;42.616;23.748;2023-06-10T05:09:22;11.27;;;10.27;;
67227;SDS011;54139;42.616;23.748;2023-06-10T05:11:47;12.30;;;11.23;;
67227;SDS011;54139;42.616;23.748;2023-06-10T05:14:13;13.30;;;12.30;;
67227;SDS011;54139;42.616;23.748;2023-06-10T05:16:40;14.45;;;13.30;;
67227;SDS011;54139;42.616;23.748;2023-06-10T05:19:05;15.65;;;14.25;;
67227;SDS011;54139;42.616;23.748;2023-06-10T05:21:31;14.18;;;12.93;;
67227;SDS011;54139;42.616;23.748;2023-06-10T05:23:56;15.23;;;14.10;;
67227;SDS011;54139;42.616;23.748;2023-06-10T05:26:22;16.15;;;14.60;;
67227;SDS011;54139;42.616;23.748;2023-06-10T05:28:47;15.07;;;13.77;;
67227;SDS011;54139;42.616;23.748;2023-06-10T05:31:13;16.15;;;14.88;;
67227;SDS011;54139;42.616;23.748;2023-06-10T05:33:38;15.57;;;14.00;;
67227;SDS011;54139;42.616;23.748;2023-06-10T05:36:04;15.63;;;14.07;;
67227;SDS011;54139;42.616;23.748;2023-06-10T05:38:30;14.15;;;13.07;;
67227;SDS011;54139;42.616;23.748;2023-06-10T05:40:55;13.90;;;12.90;;
67227;SDS011;54139;42.616;23.748;2023-06-10T05:43:22;12.07;;;11.18;;
67227;SDS011;54139;42.616;23.748;2023-06-10T05:45:47;11.35;;;10.25;;
67227;SDS011;54139;42.616;23.748;2023-06-10T05:48:13;14.10;;;11.15;;
67227;SDS011;54139;42.616;23.748;2023-06-10T05:50:38;13.15;;;11.80;;
67227;SDS011;54139;42.616;23.748;2023-06-10T05:53:06;11.48;;;10.57;;
67227;SDS011;54139;42.616;23.748;2023-06-10T05:55:33;11.60;;;10.70;;
67227;SDS011;54139;42.616;23.748;2023-06-10T05:57:59;11.82;;;10.68;;
67227;SDS011;54139;42.616;23.748;2023-06-10T06:00:25;10.43;;;9.63;;
67227;SDS011;54139;42.616;23.748;2023-06-10T06:02:51;11.82;;;10.90;;
67227;SDS011;54139;42.616;23.748;2023-06-10T06:05:17;11.20;;;10.20;;
67227;SDS011;54139;42.616;23.748;2023-06-10T06:07:43;11.88;;;10.80;;
67227;SDS011;54139;42.616;23.748;2023-06-10T06:10:08;11.85;;;10.73;;
67227;SDS011;54139;42.616;23.748;2023-06-10T06:12:34;12.85;;;11.25;;
67227;SDS011;54139;42.616;23.748;2023-06-10T06:14:59;14.38;;;13.38;;
67227;SDS011;54139;42.616;23.748;2023-06-10T06:17:24;13.07;;;11.98;;
67227;SDS011;54139;42.616;23.748;2023-06-10T06:19:50;13.18;;;11.98;;
67227;SDS011;54139;42.616;23.748;2023-06-10T06:22:15;13.07;;;12.00;;
67227;SDS011;54139;42.616;23.748;2023-06-10T06:24:45;13.65;;;12.45;;
67227;SDS011;54139;42.616;23.748;2023-06-10T06:27:10;13.52;;;12.38;;
67227;SDS011;54139;42.616;23.748;2023-06-10T06:29:36;13.52;;;12.40;;
67227;SDS011;54139;42.616;23.748;2023-06-10T06:32:01;14.48;;;13.07;;
67227;SDS011;54139;42.616;23.748;2023-06-10T06:34:26;14.07;;;12.68;;
67227;SDS011;54139;42.616;23.748;2023-06-10T06:36:52;14.88;;;13.68;;
67227;SDS011;54139;42.616;23.748;2023-06-10T06:39:17;16.17;;;14.57;;
67227;SDS011;54139;42.616;23.748;2023-06-10T06:41:43;17.30;;;15.60;;
67227;SDS011;54139;42.616;23.748;2023-06-10T06:44:08;16.63;;;15.15;;
67227;SDS011;54139;42.616;23.748;2023-06-10T06:46:33;16.00;;;14.40;;
67227;SDS011;54139;42.616;23.748;2023-06-10T06:48:59;17.88;;;16.20;;
67227;SDS011;54139;42.616;23.748;2023-06-10T06:51:24;17.42;;;15.82;;
67227;SDS011;54139;42.616;23.748;2023-06-10T06:53:50;17.80;;;16.25;;
67227;SDS011;54139;42.616;23.748;2023-06-10T06:56:16;18.65;;;17.10;;
67227;SDS011;54139;42.616;23.748;2023-06-10T06:58:42;17.90;;;16.33;;
67227;SDS011;54139;42.616;23.748;2023-06-10T07:01:07;17.48;;;16.05;;
67227;SDS011;54139;42.616;23.748;2023-06-10T07:03:33;16.90;;;15.23;;
67227;SDS011;54139;42.616;23.748;2023-06-10T07:05:58;16.08;;;14.77;;
67227;SDS011;54139;42.616;23.748;2023-06-10T07:08:24;18.50;;;16.77;;
67227;SDS011;54139;42.616;23.748;2023-06-10T07:10:50;16.25;;;14.60;;
67227;SDS011;54139;42.616;23.748;2023-06-10T07:13:15;18.00;;;16.50;;
67227;SDS011;54139;42.616;23.748;2023-06-10T07:15:41;19.35;;;17.50;;
67227;SDS011;54139;42.616;23.748;2023-06-10T07:18:06;16.73;;;15.25;;
67227;SDS011;54139;42.616;23.748;2023-06-10T07:20:32;16.85;;;15.13;;
67227;SDS011;54139;42.616;23.748;2023-06-10T07:22:57;18.35;;;16.52;;
67227;SDS011;54139;42.616;23.748;2023-06-10T07:25:22;18.13;;;16.73;;
67227;SDS011;54139;42.616;23.748;2023-06-10T07:27:48;16.05;;;14.82;;
67227;SDS011;54139;42.616;23.748;2023-06-10T07:30:14;17.55;;;15.95;;
67227;SDS011;54139;42.616;23.748;2023-06-10T07:32:39;17.95;;;16.42;;
67227;SDS011;54139;42.616;23.748;2023-06-10T07:35:07;17.50;;;15.82;;
67227;SDS011;54139;42.616;23.748;2023-06-10T07:37:33;16.17;;;14.73;;
67227;SDS011;54139;42.616;23.748;2023-06-10T07:39:59;15.95;;;13.77;;
67227;SDS011;54139;42.616;23.748;2023-06-10T07:42:24;13.93;;;12.70;;
67227;SDS011;54139;42.616;23.748;2023-06-10T07:44:50;13.52;;;12.30;;
67227;SDS011;54139;42.616;23.748;2023-06-10T07:47:15;16.23;;;13.13;;
67227;SDS011;54139;42.616;23.748;2023-06-10T07:49:40;14.50;;;13.25;;
67227;SDS011;54139;42.616;23.748;2023-06-10T07:52:07;13.98;;;12.80;;
67227;SDS011;54139;42.616;23.748;2023-06-10T07:54:32;14.82;;;13.35;;
67227;SDS011;54139;42.616;23.748;2023-06-10T07:56:58;13.70;;;12.60;;
67227;SDS011;54139;42.616;23.748;2023-06-10T07:59:23;12.85;;;11.85;;
67227;SDS011;54139;42.616;23.748;2023-06-10T08:01:51;14.07;;;12.88;;
67227;SDS011;54139;42.616;23.748;2023-06-10T08:04:17;13.10;;;11.90;;
67227;SDS011;54139;42.616;23.748;2023-06-10T08:06:43;12.93;;;11.75;;
67227;SDS011;54139;42.616;23.748;2023-06-10T08:09:08;13.25;;;11.95;;
67227;SDS011;54139;42.616;23.748;2023-06-10T08:11:34;13.95;;;12.60;;
67227;SDS011;54139;42.616;23.748;2023-06-10T08:14:00;12.80;;;11.80;;
67227;SDS011;54139;42.616;23.748;2023-06-10T08:16:26;15.02;;;13.60;;
67227;SDS011;54139;42.616;23.748;2023-06-10T08:18:51;13.52;;;12.50;;
67227;SDS011;54139;42.616;23.748;2023-06-10T08:21:17;14.43;;;13.18;;
67227;SDS011;54139;42.616;23.748;2023-06-10T08:23:43;15.57;;;14.18;;
67227;SDS011;54139;42.616;23.748;2023-06-10T08:26:09;13.05;;;11.98;;
67227;SDS011;54139;42.616;23.748;2023-06-10T08:28:34;11.80;;;10.32;;
67227;SDS011;54139;42.616;23.748;2023-06-10T08:31:00;11.75;;;10.05;;
67227;SDS011;54139;42.616;23.748;2023-06-10T08:33:25;8.82;;;8.23;;
67227;SDS011;54139;42.616;23.748;2023-06-10T08:35:51;9.02;;;8.23;;
67227;SDS011;54139;42.616;23.748;2023-06-10T08:38:16;10.05;;;9.35;;
67227;SDS011;54139;42.616;23.748;2023-06-10T08:40:41;10.25;;;9.05;;
67227;SDS011;54139;42.616;23.748;2023-06-10T08:43:07;8.07;;;7.43;;
67227;SDS011;54139;42.616;23.748;2023-06-10T08:48:05;7.68;;;6.68;;
67227;SDS011;54139;42.616;23.748;2023-06-10T08:50:34;6.88;;;6.35;;
67227;SDS011;54139;42.616;23.748;2023-06-10T08:53:01;8.82;;;6.22;;
67227;SDS011;54139;42.616;23.748;2023-06-10T08:55:29;6.07;;;5.45;;
67227;SDS011;54139;42.616;23.748;2023-06-10T08:57:57;3.88;;;3.58;;
67227;SDS011;54139;42.616;23.748;2023-06-10T09:00:25;3.67;;;3.40;;
67227;SDS011;54139;42.616;23.748;2023-06-10T09:02:51;3.85;;;3.55;;
67227;SDS011;54139;42.616;23.748;2023-06-10T09:05:17;4.90;;;4.50;;
67227;SDS011;54139;42.616;23.748;2023-06-10T09:07:42;5.15;;;4.78;;
67227;SDS011;54139;42.616;23.748;2023-06-10T09:10:09;6.50;;;5.60;;
67227;SDS011;54139;42.616;23.748;2023-06-10T09:12:35;11.23;;;4.45;;
67227;SDS011;54139;42.616;23.748;2023-06-10T09:15:03;4.78;;;4.38;;
67227;SDS011;54139;42.616;23.748;2023-06-10T09:17:29;5.50;;;3.85;;
67227;SDS011;54139;42.616;23.748;2023-06-10T09:19:54;4.10;;;3.50;;
67227;SDS011;54139;42.616;23.748;2023-06-10T09:22:22;3.50;;;3.20;;
67227;SDS011;54139;42.616;23.748;2023-06-10T09:24:48;3.78;;;3.25;;
67227;SDS011;54139;42.616;23.748;2023-06-10T09:27:13;4.32;;;3.67;;
67227;SDS011;54139;42.616;23.748;2023-06-10T09:29:52;5.18;;;3.47;;
67227;SDS011;54139;42.616;23.748;2023-06-10T09:32:19;3.45;;;3.20;;
67227;SDS011;54139;42.616;23.748;2023-06-10T09:34:45;3.58;;;3.35;;
67227;SDS011;54139;42.616;23.748;2023-06-10T09:37:11;4.78;;;3.92;;
67227;SDS011;54139;42.616;23.748;2023-06-10T09:39:38;6.60;;;3.42;;
67227;SDS011;54139;42.616;23.748;2023-06-10T09:42:25;3.35;;;3.05;;
67227;SDS011;54139;42.616;23.748;2023-06-10T09:44:50;5.38;;;3.28;;
67227;SDS011;54139;42.616;23.748;2023-06-10T09:47:20;3.50;;;3.20;;
67227;SDS011;54139;42.616;23.748;2023-06-10T09:49:47;2.42;;;2.22;;
67227;SDS011;54139;42.616;23.748;2023-06-10T09:52:24;3.67;;;2.88;;
67227;SDS011;54139;42.616;23.748;2023-06-10T09:54:51;4.45;;;2.60;;
67227;SDS011;54139;42.616;23.748;2023-06-10T09:57:17;3.60;;;2.58;;
67227;SDS011;54139;42.616;23.748;2023-06-10T09:59:45;3.25;;;2.10;;
67227;SDS011;54139;42.616;23.748;2023-06-10T10:02:17;4.25;;;2.28;;
67227;SDS011;54139;42.616;23.748;2023-06-10T10:04:43;2.85;;;2.55;;
67227;SDS011;54139;42.616;23.748;2023-06-10T10:07:09;2.70;;;2.50;;
67227;SDS011;54139;42.616;23.748;2023-06-10T10:09:35;2.67;;;2.47;;
67227;SDS011;54139;42.616;23.748;2023-06-10T10:12:02;2.80;;;2.60;;
67227;SDS011;54139;42.616;23.748;2023-06-10T10:14:28;4.70;;;3.17;;
67227;SDS011;54139;42.616;23.748;2023-06-10T10:16:57;4.63;;;2.53;;
67227;SDS011;54139;42.616;23.748;2023-06-10T10:19:25;2.95;;;2.72;;
67227;SDS011;54139;42.616;23.748;2023-06-10T10:21:54;3.25;;;2.22;;
67227;SDS011;54139;42.616;23.748;2023-06-10T10:24:22;5.78;;;2.70;;
67227;SDS011;54139;42.616;23.748;2023-06-10T10:26:50;4.18;;;2.25;;
67227;SDS011;54139;42.616;23.748;2023-06-10T10:29:17;2.20;;;2.10;;
67227;SDS011;54139;42.616;23.748;2023-06-10T10:31:46;3.10;;;2.42;;
67227;SDS011;54139;42.616;23.748;2023-06-10T10:34:33;2.38;;;2.17;;
67227;SDS011;54139;42.616;23.748;2023-06-10T10:37:17;2.90;;;2.63;;
67227;SDS011;54139;42.616;23.748;2023-06-10T10:39:43;2.30;;;2.08;;
67227;SDS011;54139;42.616;23.748;2023-06-10T10:42:09;2.30;;;2.10;;
67227;SDS011;54139;42.616;23.748;2023-06-10T10:44:36;4.78;;;2.40;;
67227;SDS011;54139;42.616;23.748;2023-06-10T10:47:03;4.72;;;2.08;;
67227;SDS011;54139;42.616;23.748;2023-06-10T10:49:32;4.45;;;2.33;;
67227;SDS011;54139;42.616;23.748;2023-06-10T10:51:59;2.83;;;2.50;;
67227;SDS011;54139;42.616;23.748;2023-06-10T10:54:32;3.30;;;2.40;;
67227;SDS011;54139;42.616;23.748;2023-06-10T11:05:35;2.58;;;2.38;;
67227;SDS011;54139;42.616;23.748;2023-06-10T11:08:03;2.17;;;2.00;;
67227;SDS011;54139;42.616;23.748;2023-06-10T11:10:33;2.65;;;2.45;;
67227;SDS011;54139;42.616;23.748;2023-06-10T11:12:59;2.67;;;2.35;;
67227;SDS011;54139;42.616;23.748;2023-06-10T11:15:26;4.80;;;2.25;;
67227;SDS011;54139;42.616;23.748;2023-06-10T11:23:24;2.35;;;2.17;;
67227;SDS011;54139;42.616;23.748;2023-06-10T11:25:51;2.60;;;2.40;;
67227;SDS011;54139;42.616;23.748;2023-06-10T11:28:19;2.50;;;2.30;;
67227;SDS011;54139;42.616;23.748;2023-06-10T11:30:45;5.88;;;2.20;;
67227;SDS011;54139;42.616;23.748;2023-06-10T11:33:16;2.65;;;2.42;;
67227;SDS011;54139;42.616;23.748;2023-06-10T11:35:42;4.18;;;2.50;;
67227;SDS011;54139;42.616;23.748;2023-06-10T11:38:08;4.88;;;2.42;;
67227;SDS011;54139;42.616;23.748;2023-06-10T11:40:33;7.22;;;2.50;;
67227;SDS011;54139;42.616;23.748;2023-06-10T11:42:59;2.35;;;2.22;;
67227;SDS011;54139;42.616;23.748;2023-06-10T11:45:25;2.60;;;2.40;;
67227;SDS011;54139;42.616;23.748;2023-06-10T11:47:57;3.17;;;2.85;;
67227;SDS011;54139;42.616;23.748;2023-06-10T11:50:33;3.05;;;2.80;;
67227;SDS011;54139;42.616;23.748;2023-06-10T11:52:59;2.58;;;2.40;;
67227;SDS011;54139;42.616;23.748;2023-06-10T11:55:46;2.78;;;2.38;;
67227;SDS011;54139;42.616;23.748;2023-06-10T11:58:14;3.08;;;2.78;;
67227;SDS011;54139;42.616;23.748;2023-06-10T12:00:46;3.00;;;2.80;;
67227;SDS011;54139;42.616;23.748;2023-06-10T12:03:12;3.75;;;3.40;;
67227;SDS011;54139;42.616;23.748;2023-06-10T12:05:38;5.13;;;2.95;;
67227;SDS011;54139;42.616;23.748;2023-06-10T12:08:09;3.13;;;2.65;;
67227;SDS011;54139;42.616;23.748;2023-06-10T12:10:42;5.47;;;3.05;;
67227;SDS011;54139;42.616;23.748;2023-06-10T12:13:11;3.47;;;3.17;;
67227;SDS011;54139;42.616;23.748;2023-06-10T12:15:36;3.65;;;3.20;;
67227;SDS011;54139;42.616;23.748;2023-06-10T12:18:02;3.38;;;3.10;;
67227;SDS011;54139;42.616;23.748;2023-06-10T12:20:29;8.38;;;3.03;;
67227;SDS011;54139;42.616;23.748;2023-06-10T12:22:56;2.58;;;2.38;;
67227;SDS011;54139;42.616;23.748;2023-06-10T12:25:25;2.72;;;2.53;;
67227;SDS011;54139;42.616;23.748;2023-06-10T12:27:52;2.60;;;2.40;;
67227;SDS011;54139;42.616;23.748;2023-06-10T12:30:21;3.58;;;2.58;;
67227;SDS011;54139;42.616;23.748;2023-06-10T12:32:48;3.03;;;1.90;;
67227;SDS011;54139;42.616;23.748;2023-06-10T12:35:16;2.55;;;2.30;;
67227;SDS011;54139;42.616;23.748;2023-06-10T12:40:08;2.72;;;2.33;;
67227;SDS011;54139;42.616;23.748;2023-06-10T12:42:35;2.88;;;2.67;;
67227;SDS011;54139;42.616;23.748;2023-06-10T12:45:01;2.50;;;2.30;;
67227;SDS011;54139;42.616;23.748;2023-06-10T12:47:31;2.70;;;2.50;;
67227;SDS011;54139;42.616;23.748;2023-06-10T12:49:58;2.58;;;2.33;;
67227;SDS011;54139;42.616;23.748;2023-06-10T12:52:24;4.55;;;2.45;;
67227;SDS011;54139;42.616;23.748;2023-06-10T12:54:50;2.00;;;1.90;;
67227;SDS011;54139;42.616;23.748;2023-06-10T12:57:16;2.85;;;2.65;;
67227;SDS011;54139;42.616;23.748;2023-06-10T12:59:42;2.28;;;2.08;;
67227;SDS011;54139;42.616;23.748;2023-06-10T13:02:14;2.65;;;2.45;;
67227;SDS011;54139;42.616;23.748;2023-06-10T13:04:40;2.25;;;2.05;;
67227;SDS011;54139;42.616;23.748;2023-06-10T13:07:05;2.72;;;2.53;;
67227;SDS011;54139;42.616;23.748;2023-06-10T13:09:31;2.20;;;2.10;;
67227;SDS011;54139;42.616;23.748;2023-06-10T13:11:57;2.85;;;2.25;;
67227;SDS011;54139;42.616;23.748;2023-06-10T13:14:22;2.55;;;1.80;;
67227;SDS011;54139;42.616;23.748;2023-06-10T13:16:47;1.88;;;1.58;;
67227;SDS011;54139;42.616;23.748;2023-06-10T13:19:13;2.20;;;1.83;;
67227;SDS011;54139;42.616;23.748;2023-06-10T13:21:38;1.92;;;1.83;;
67227;SDS011;54139;42.616;23.748;2023-06-10T13:24:04;1.80;;;1.70;;
67227;SDS011;54139;42.616;23.748;2023-06-10T13:26:29;2.35;;;2.20;;
67227;SDS011;54139;42.616;23.748;2023-06-10T13:28:55;3.00;;;2.10;;
67227;SDS011;54139;42.616;23.748;2023-06-10T13:31:20;2.13;;;1.92;;
67227;SDS011;54139;42.616;23.748;2023-06-10T13:33:46;2.00;;;1.90;;
67227;SDS011;54139;42.616;23.748;2023-06-10T13:36:12;2.20;;;2.00;;
67227;SDS011;54139;42.616;23.748;2023-06-10T13:38:37;2.25;;;2.15;;
67227;SDS011;54139;42.616;23.748;2023-06-10T13:41:03;2.03;;;1.92;;
67227;SDS011;54139;42.616;23.748;2023-06-10T13:43:28;2.20;;;2.10;;
67227;SDS011;54139;42.616;23.748;2023-06-10T13:45:54;4.22;;;2.22;;
67227;SDS011;54139;42.616;23.748;2023-06-10T13:48:20;2.67;;;2.45;;
67227;SDS011;54139;42.616;23.748;2023-06-10T13:50:46;5.13;;;2.53;;
67227;SDS011;54139;42.616;23.748;2023-06-10T13:53:12;2.38;;;2.00;;
67227;SDS011;54139;42.616;23.748;2023-06-10T13:55:37;3.00;;;2.80;;
67227;SDS011;54139;42.616;23.748;2023-06-10T13:58:03;4.00;;;2.50;;
67227;SDS011;54139;42.616;23.748;2023-06-10T14:00:28;3.03;;;2.83;;
67227;SDS011;54139;42.616;23.748;2023-06-10T14:02:54;2.72;;;2.53;;
67227;SDS011;54139;42.616;23.748;2023-06-10T14:05:19;2.90;;;2.70;;
67227;SDS011;54139;42.616;23.748;2023-06-10T14:07:45;3.72;;;2.60;;
67227;SDS011;54139;42.616;23.748;2023-06-10T14:10:10;5.78;;;2.78;;
67227;SDS011;54139;42.616;23.748;2023-06-10T14:12:36;3.17;;;2.33;;
67227;SDS011;54139;42.616;23.748;2023-06-10T14:15:01;4.70;;;2.85;;
67227;SDS011;54139;42.616;23.748;2023-06-10T14:17:28;4.40;;;3.22;;
67227;SDS011;54139;42.616;23.748;2023-06-10T14:19:53;3.72;;;3.10;;
67227;SDS011;54139;42.616;23.748;2023-06-10T14:22:18;3.83;;;3.33;;
67227;SDS011;54139;42.616;23.748;2023-06-10T14:24:44;5.55;;;3.08;;
67227;SDS011;54139;42.616;23.748;2023-06-10T14:27:09;2.90;;;2.70;;
67227;SDS011;54139;42.616;23.748;2023-06-10T14:29:35;2.78;;;2.58;;
67227;SDS011;54139;42.616;23.748;2023-06-10T14:32:00;4.00;;;2.65;;
67227;SDS011;54139;42.616;23.748;2023-06-10T14:34:26;2.88;;;2.67;;
67227;SDS011;54139;42.616;23.748;2023-06-10T14:36:54;3.30;;;3.00;;
67227;SDS011;54139;42.616;23.748;2023-06-10T14:39:20;3.00;;;2.72;;
67227;SDS011;54139;42.616;23.748;2023-06-10T14:41:46;3.08;;;2.75;;
67227;SDS011;54139;42.616;23.748;2023-06-10T14:44:11;3.03;;;2.83;;
67227;SDS011;54139;42.616;23.748;2023-06-10T14:46:36;3.28;;;3.05;;
67227;SDS011;54139;42.616;23.748;2023-06-10T14:49:02;4.85;;;2.80;;
67227;SDS011;54139;42.616;23.748;2023-06-10T14:51:27;3.35;;;2.78;;
67227;SDS011;54139;42.616;23.748;2023-06-10T14:53:53;4.80;;;3.00;;
67227;SDS011;54139;42.616;23.748;2023-06-10T14:56:18;4.10;;;2.88;;
67227;SDS011;54139;42.616;23.748;2023-06-10T14:58:44;5.43;;;2.97;;
67227;SDS011;54139;42.616;23.748;2023-06-10T15:01:09;6.75;;;2.90;;